sensor_id;sensor_type;location;lat;lon;timestamp;P1;durP1;ratioP1;P2;durP2;ratioP2
28760;SDS011;15917;50.014;8.352;2022-11-11T00:00:59;29.83;;;12.02;;
28760;SDS011;15917;50.014;8.352;2022-11-11T00:03:45;27.17;;;11.40;;
28760;SDS011;15917;50.014;8.352;2022-11-11T00:06:29;31.20;;;11.95;;
28760;SDS011;15917;50.014;8.352;2022-11-11T00:09:13;23.55;;;11.10;;
28760;SDS011;15917;50.014;8.352;2022-11-11T00:11:57;30.88;;;12.35;;
28760;SDS011;15917;50.014;8.352;2022-11-11T00:14:41;30.70;;;11.88;;
28760;SDS011;15917;50.014;8.352;2022-11-11T00:17:25;33.13;;;12.27;;
28760;SDS011;15917;50.014;8.352;2022-11-11T00:20:28;29.67;;;13.25;;
28760;SDS011;15917;50.014;8.352;2022-11-11T00:23:31;31.25;;;12.50;;
28760;SDS011;15917;50.014;8.352;2022-11-11T00:26:34;34.03;;;11.93;;
28760;SDS011;15917;50.014;8.352;2022-11-11T00:29:18;29.05;;;12.07;;
28760;SDS011;15917;50.014;8.352;2022-11-11T00:32:04;30.98;;;11.27;;
28760;SDS011;15917;50.014;8.352;2022-11-11T00:35:07;32.85;;;13.48;;
28760;SDS011;15917;50.014;8.352;2022-11-11T00:38:11;33.28;;;12.63;;
28760;SDS011;15917;50.014;8.352;2022-11-11T00:41:17;36.55;;;13.82;;
28760;SDS011;15917;50.014;8.352;2022-11-11T00:44:02;35.05;;;12.65;;
28760;SDS011;15917;50.014;8.352;2022-11-11T00:46:47;39.38;;;13.73;;
28760;SDS011;15917;50.014;8.352;2022-11-11T00:49:50;39.03;;;13.35;;
28760;SDS011;15917;50.014;8.352;2022-11-11T00:52:53;33.92;;;13.05;;
28760;SDS011;15917;50.014;8.352;2022-11-11T00:55:37;42.70;;;14.45;;
28760;SDS011;15917;50.014;8.352;2022-11-11T00:58:21;38.20;;;15.05;;
28760;SDS011;15917;50.014;8.352;2022-11-11T01:01:06;42.70;;;14.30;;
28760;SDS011;15917;50.014;8.352;2022-11-11T01:03:50;34.55;;;14.45;;
28760;SDS011;15917;50.014;8.352;2022-11-11T01:06:34;30.30;;;13.02;;
28760;SDS011;15917;50.014;8.352;2022-11-11T01:09:19;33.35;;;13.38;;
28760;SDS011;15917;50.014;8.352;2022-11-11T01:12:04;35.45;;;13.15;;
28760;SDS011;15917;50.014;8.352;2022-11-11T01:14:49;34.60;;;13.68;;
28760;SDS011;15917;50.014;8.352;2022-11-11T01:17:33;36.70;;;13.57;;
28760;SDS011;15917;50.014;8.352;2022-11-11T01:20:16;33.03;;;13.85;;
28760;SDS011;15917;50.014;8.352;2022-11-11T01:23:01;33.72;;;13.93;;
28760;SDS011;15917;50.014;8.352;2022-11-11T01:25:45;44.17;;;15.45;;
28760;SDS011;15917;50.014;8.352;2022-11-11T01:28:30;41.58;;;16.02;;
28760;SDS011;15917;50.014;8.352;2022-11-11T01:31:17;41.15;;;14.05;;
28760;SDS011;15917;50.014;8.352;2022-11-11T01:34:03;50.28;;;14.35;;
28760;SDS011;15917;50.014;8.352;2022-11-11T01:36:47;46.85;;;15.05;;
28760;SDS011;15917;50.014;8.352;2022-11-11T01:39:31;40.10;;;14.98;;
28760;SDS011;15917;50.014;8.352;2022-11-11T01:42:15;47.78;;;15.95;;
28760;SDS011;15917;50.014;8.352;2022-11-11T01:44:59;77.30;;;19.15;;
28760;SDS011;15917;50.014;8.352;2022-11-11T01:47:43;64.97;;;19.63;;
28760;SDS011;15917;50.014;8.352;2022-11-11T01:50:46;67.43;;;19.65;;
28760;SDS011;15917;50.014;8.352;2022-11-11T01:53:30;65.72;;;21.00;;
28760;SDS011;15917;50.014;8.352;2022-11-11T01:56:15;64.18;;;20.05;;
28760;SDS011;15917;50.014;8.352;2022-11-11T01:59:01;54.67;;;19.38;;
28760;SDS011;15917;50.014;8.352;2022-11-11T02:01:49;69.00;;;20.95;;
28760;SDS011;15917;50.014;8.352;2022-11-11T02:04:33;55.42;;;21.20;;
28760;SDS011;15917;50.014;8.352;2022-11-11T02:07:37;71.57;;;21.08;;
28760;SDS011;15917;50.014;8.352;2022-11-11T02:10:24;85.13;;;18.98;;
28760;SDS011;15917;50.014;8.352;2022-11-11T02:13:12;83.10;;;20.48;;
28760;SDS011;15917;50.014;8.352;2022-11-11T02:16:16;122.38;;;21.67;;
28760;SDS011;15917;50.014;8.352;2022-11-11T02:19:00;124.25;;;20.17;;
28760;SDS011;15917;50.014;8.352;2022-11-11T02:21:46;138.82;;;23.75;;
28760;SDS011;15917;50.014;8.352;2022-11-11T02:24:37;156.98;;;22.77;;
28760;SDS011;15917;50.014;8.352;2022-11-11T02:27:24;95.00;;;19.55;;
28760;SDS011;15917;50.014;8.352;2022-11-11T02:30:10;57.17;;;18.33;;
28760;SDS011;15917;50.014;8.352;2022-11-11T02:32:57;65.50;;;18.70;;
28760;SDS011;15917;50.014;8.352;2022-11-11T02:35:43;109.30;;;20.73;;
28760;SDS011;15917;50.014;8.352;2022-11-11T02:38:31;67.90;;;19.83;;
28760;SDS011;15917;50.014;8.352;2022-11-11T02:41:15;108.15;;;20.65;;
28760;SDS011;15917;50.014;8.352;2022-11-11T02:44:18;61.75;;;18.77;;
28760;SDS011;15917;50.014;8.352;2022-11-11T02:47:03;80.43;;;19.98;;
28760;SDS011;15917;50.014;8.352;2022-11-11T02:49:47;68.50;;;20.30;;
28760;SDS011;15917;50.014;8.352;2022-11-11T02:52:31;55.47;;;19.23;;
28760;SDS011;15917;50.014;8.352;2022-11-11T02:55:16;82.57;;;20.23;;
28760;SDS011;15917;50.014;8.352;2022-11-11T02:58:00;66.65;;;20.83;;
28760;SDS011;15917;50.014;8.352;2022-11-11T03:00:44;98.53;;;21.17;;
28760;SDS011;15917;50.014;8.352;2022-11-11T03:03:28;69.57;;;21.50;;
28760;SDS011;15917;50.014;8.352;2022-11-11T03:06:12;88.28;;;21.45;;
28760;SDS011;15917;50.014;8.352;2022-11-11T03:08:56;80.93;;;22.13;;
28760;SDS011;15917;50.014;8.352;2022-11-11T03:11:41;62.40;;;23.75;;
28760;SDS011;15917;50.014;8.352;2022-11-11T03:14:25;72.43;;;22.20;;
28760;SDS011;15917;50.014;8.352;2022-11-11T03:17:09;120.55;;;22.90;;
28760;SDS011;15917;50.014;8.352;2022-11-11T03:20:13;67.78;;;21.20;;
28760;SDS011;15917;50.014;8.352;2022-11-11T03:23:18;74.28;;;22.58;;
28760;SDS011;15917;50.014;8.352;2022-11-11T03:26:02;76.25;;;21.65;;
28760;SDS011;15917;50.014;8.352;2022-11-11T03:28:46;73.47;;;21.60;;
28760;SDS011;15917;50.014;8.352;2022-11-11T03:31:30;77.85;;;21.52;;
28760;SDS011;15917;50.014;8.352;2022-11-11T03:34:14;64.35;;;22.58;;
28760;SDS011;15917;50.014;8.352;2022-11-11T03:37:02;60.92;;;21.98;;
28760;SDS011;15917;50.014;8.352;2022-11-11T03:40:06;71.63;;;21.35;;
28760;SDS011;15917;50.014;8.352;2022-11-11T03:42:51;65.13;;;21.55;;
28760;SDS011;15917;50.014;8.352;2022-11-11T03:45:35;75.72;;;22.27;;
28760;SDS011;15917;50.014;8.352;2022-11-11T03:48:19;67.65;;;21.48;;
28760;SDS011;15917;50.014;8.352;2022-11-11T03:51:04;145.75;;;23.38;;
28760;SDS011;15917;50.014;8.352;2022-11-11T03:53:48;72.78;;;22.70;;
28760;SDS011;15917;50.014;8.352;2022-11-11T03:56:32;87.03;;;22.63;;
28760;SDS011;15917;50.014;8.352;2022-11-11T03:59:16;100.53;;;20.55;;
28760;SDS011;15917;50.014;8.352;2022-11-11T04:02:00;77.78;;;21.20;;
28760;SDS011;15917;50.014;8.352;2022-11-11T04:05:03;84.88;;;22.42;;
28760;SDS011;15917;50.014;8.352;2022-11-11T04:08:16;81.00;;;20.45;;
28760;SDS011;15917;50.014;8.352;2022-11-11T04:11:26;80.88;;;20.17;;
28760;SDS011;15917;50.014;8.352;2022-11-11T04:14:12;81.43;;;20.33;;
28760;SDS011;15917;50.014;8.352;2022-11-11T04:17:16;50.15;;;18.67;;
28760;SDS011;15917;50.014;8.352;2022-11-11T04:20:00;77.15;;;19.65;;
28760;SDS011;15917;50.014;8.352;2022-11-11T04:23:03;72.70;;;19.27;;
28760;SDS011;15917;50.014;8.352;2022-11-11T04:25:47;110.28;;;24.00;;
28760;SDS011;15917;50.014;8.352;2022-11-11T04:28:31;65.68;;;21.08;;
28760;SDS011;15917;50.014;8.352;2022-11-11T04:31:34;60.38;;;19.83;;
28760;SDS011;15917;50.014;8.352;2022-11-11T04:34:19;68.13;;;20.67;;
28760;SDS011;15917;50.014;8.352;2022-11-11T04:37:03;105.07;;;21.45;;
28760;SDS011;15917;50.014;8.352;2022-11-11T04:39:47;85.10;;;20.98;;
28760;SDS011;15917;50.014;8.352;2022-11-11T04:42:53;189.20;;;20.50;;
28760;SDS011;15917;50.014;8.352;2022-11-11T04:45:37;83.78;;;21.30;;
28760;SDS011;15917;50.014;8.352;2022-11-11T04:48:21;175.75;;;20.48;;
28760;SDS011;15917;50.014;8.352;2022-11-11T04:51:05;114.80;;;20.10;;
28760;SDS011;15917;50.014;8.352;2022-11-11T04:53:49;252.30;;;22.13;;
28760;SDS011;15917;50.014;8.352;2022-11-11T04:56:33;61.92;;;19.40;;
28760;SDS011;15917;50.014;8.352;2022-11-11T04:59:33;208.50;;;21.50;;
28760;SDS011;15917;50.014;8.352;2022-11-11T05:02:17;142.18;;;23.40;;
28760;SDS011;15917;50.014;8.352;2022-11-11T05:05:24;123.60;;;20.35;;
28760;SDS011;15917;50.014;8.352;2022-11-11T05:08:09;64.00;;;20.63;;
28760;SDS011;15917;50.014;8.352;2022-11-11T05:11:12;56.55;;;18.02;;
28760;SDS011;15917;50.014;8.352;2022-11-11T05:13:57;120.40;;;21.38;;
28760;SDS011;15917;50.014;8.352;2022-11-11T05:17:02;63.80;;;15.20;;
28760;SDS011;15917;50.014;8.352;2022-11-11T05:20:06;47.80;;;15.50;;
28760;SDS011;15917;50.014;8.352;2022-11-11T05:23:11;38.10;;;14.80;;
28760;SDS011;15917;50.014;8.352;2022-11-11T05:25:55;46.58;;;15.52;;
28760;SDS011;15917;50.014;8.352;2022-11-11T05:28:39;58.10;;;15.07;;
28760;SDS011;15917;50.014;8.352;2022-11-11T05:31:23;113.50;;;15.57;;
28760;SDS011;15917;50.014;8.352;2022-11-11T05:34:07;50.25;;;15.00;;
28760;SDS011;15917;50.014;8.352;2022-11-11T05:36:51;94.32;;;16.13;;
28760;SDS011;15917;50.014;8.352;2022-11-11T05:39:35;117.75;;;17.08;;
28760;SDS011;15917;50.014;8.352;2022-11-11T05:42:19;51.35;;;16.55;;
28760;SDS011;15917;50.014;8.352;2022-11-11T05:45:03;46.13;;;17.30;;
28760;SDS011;15917;50.014;8.352;2022-11-11T05:47:48;61.42;;;17.70;;
28760;SDS011;15917;50.014;8.352;2022-11-11T05:50:32;56.67;;;19.17;;
28760;SDS011;15917;50.014;8.352;2022-11-11T05:53:17;71.60;;;17.27;;
28760;SDS011;15917;50.014;8.352;2022-11-11T05:56:06;111.68;;;17.15;;
28760;SDS011;15917;50.014;8.352;2022-11-11T05:58:50;78.28;;;16.33;;
28760;SDS011;15917;50.014;8.352;2022-11-11T06:01:35;95.30;;;15.93;;
28760;SDS011;15917;50.014;8.352;2022-11-11T06:04:20;51.22;;;15.73;;
28760;SDS011;15917;50.014;8.352;2022-11-11T06:07:05;76.55;;;13.10;;
28760;SDS011;15917;50.014;8.352;2022-11-11T06:09:49;59.35;;;14.07;;
28760;SDS011;15917;50.014;8.352;2022-11-11T06:12:33;57.53;;;14.70;;
28760;SDS011;15917;50.014;8.352;2022-11-11T06:15:37;53.28;;;14.20;;
28760;SDS011;15917;50.014;8.352;2022-11-11T06:18:23;48.67;;;13.45;;
28760;SDS011;15917;50.014;8.352;2022-11-11T06:21:07;52.55;;;12.93;;
28760;SDS011;15917;50.014;8.352;2022-11-11T06:23:51;53.83;;;13.32;;
28760;SDS011;15917;50.014;8.352;2022-11-11T06:26:35;164.50;;;14.60;;
28760;SDS011;15917;50.014;8.352;2022-11-11T06:29:19;33.95;;;12.38;;
28760;SDS011;15917;50.014;8.352;2022-11-11T06:32:03;106.35;;;13.77;;
28760;SDS011;15917;50.014;8.352;2022-11-11T06:34:48;47.95;;;11.77;;
28760;SDS011;15917;50.014;8.352;2022-11-11T06:37:31;51.75;;;11.63;;
28760;SDS011;15917;50.014;8.352;2022-11-11T06:40:16;48.22;;;12.20;;
28760;SDS011;15917;50.014;8.352;2022-11-11T06:43:00;58.15;;;11.38;;
28760;SDS011;15917;50.014;8.352;2022-11-11T06:45:44;55.95;;;13.38;;
28760;SDS011;15917;50.014;8.352;2022-11-11T06:48:32;70.50;;;12.93;;
28760;SDS011;15917;50.014;8.352;2022-11-11T06:51:17;28.52;;;11.25;;
28760;SDS011;15917;50.014;8.352;2022-11-11T06:54:01;90.28;;;13.23;;
28760;SDS011;15917;50.014;8.352;2022-11-11T06:56:46;28.52;;;11.95;;
28760;SDS011;15917;50.014;8.352;2022-11-11T06:59:30;37.75;;;13.13;;
28760;SDS011;15917;50.014;8.352;2022-11-11T07:02:14;68.68;;;13.35;;
28760;SDS011;15917;50.014;8.352;2022-11-11T07:04:58;34.28;;;12.77;;
28760;SDS011;15917;50.014;8.352;2022-11-11T07:07:43;43.03;;;14.02;;
28760;SDS011;15917;50.014;8.352;2022-11-11T07:10:27;36.78;;;12.98;;
28760;SDS011;15917;50.014;8.352;2022-11-11T07:13:11;47.97;;;14.32;;
28760;SDS011;15917;50.014;8.352;2022-11-11T07:15:56;36.33;;;12.25;;
28760;SDS011;15917;50.014;8.352;2022-11-11T07:18:40;29.65;;;10.98;;
28760;SDS011;15917;50.014;8.352;2022-11-11T07:21:24;26.95;;;11.82;;
28760;SDS011;15917;50.014;8.352;2022-11-11T07:24:08;31.80;;;10.48;;
28760;SDS011;15917;50.014;8.352;2022-11-11T07:26:52;32.08;;;10.77;;
28760;SDS011;15917;50.014;8.352;2022-11-11T07:29:36;38.90;;;10.90;;
28760;SDS011;15917;50.014;8.352;2022-11-11T07:32:20;71.75;;;10.80;;
28760;SDS011;15917;50.014;8.352;2022-11-11T07:35:04;42.55;;;11.48;;
28760;SDS011;15917;50.014;8.352;2022-11-11T07:37:48;35.00;;;12.30;;
28760;SDS011;15917;50.014;8.352;2022-11-11T07:40:33;42.42;;;12.35;;
28760;SDS011;15917;50.014;8.352;2022-11-11T07:43:17;30.98;;;11.18;;
28760;SDS011;15917;50.014;8.352;2022-11-11T07:46:01;30.92;;;9.93;;
28760;SDS011;15917;50.014;8.352;2022-11-11T07:48:45;30.15;;;11.48;;
28760;SDS011;15917;50.014;8.352;2022-11-11T07:51:28;36.92;;;10.93;;
28760;SDS011;15917;50.014;8.352;2022-11-11T07:54:13;28.00;;;11.43;;
28760;SDS011;15917;50.014;8.352;2022-11-11T07:56:57;35.90;;;11.23;;
28760;SDS011;15917;50.014;8.352;2022-11-11T07:59:41;39.15;;;11.23;;
28760;SDS011;15917;50.014;8.352;2022-11-11T08:02:25;42.20;;;12.45;;
28760;SDS011;15917;50.014;8.352;2022-11-11T08:05:09;34.13;;;11.73;;
28760;SDS011;15917;50.014;8.352;2022-11-11T08:07:53;35.08;;;12.65;;
28760;SDS011;15917;50.014;8.352;2022-11-11T08:10:37;42.35;;;12.57;;
28760;SDS011;15917;50.014;8.352;2022-11-11T08:13:21;33.50;;;12.20;;
28760;SDS011;15917;50.014;8.352;2022-11-11T08:16:23;45.20;;;12.80;;
28760;SDS011;15917;50.014;8.352;2022-11-11T08:19:08;35.88;;;13.45;;
28760;SDS011;15917;50.014;8.352;2022-11-11T08:21:52;32.85;;;11.63;;
28760;SDS011;15917;50.014;8.352;2022-11-11T08:24:36;29.08;;;12.32;;
28760;SDS011;15917;50.014;8.352;2022-11-11T08:27:20;28.73;;;11.65;;
28760;SDS011;15917;50.014;8.352;2022-11-11T08:30:05;31.10;;;12.10;;
28760;SDS011;15917;50.014;8.352;2022-11-11T08:32:57;27.83;;;10.00;;
28760;SDS011;15917;50.014;8.352;2022-11-11T08:35:42;26.67;;;10.68;;
28760;SDS011;15917;50.014;8.352;2022-11-11T08:38:26;30.00;;;11.45;;
28760;SDS011;15917;50.014;8.352;2022-11-11T08:41:10;23.08;;;10.65;;
28760;SDS011;15917;50.014;8.352;2022-11-11T08:43:55;25.63;;;10.77;;
28760;SDS011;15917;50.014;8.352;2022-11-11T08:46:39;32.72;;;9.50;;
28760;SDS011;15917;50.014;8.352;2022-11-11T08:49:23;26.08;;;9.32;;
28760;SDS011;15917;50.014;8.352;2022-11-11T08:52:07;28.67;;;10.60;;
28760;SDS011;15917;50.014;8.352;2022-11-11T08:54:51;25.23;;;11.45;;
28760;SDS011;15917;50.014;8.352;2022-11-11T08:57:35;29.52;;;10.80;;
28760;SDS011;15917;50.014;8.352;2022-11-11T09:00:19;27.90;;;10.88;;
28760;SDS011;15917;50.014;8.352;2022-11-11T09:03:04;27.90;;;11.85;;
28760;SDS011;15917;50.014;8.352;2022-11-11T09:05:50;28.33;;;11.60;;
28760;SDS011;15917;50.014;8.352;2022-11-11T09:08:35;33.80;;;11.20;;
28760;SDS011;15917;50.014;8.352;2022-11-11T09:11:19;31.88;;;11.38;;
28760;SDS011;15917;50.014;8.352;2022-11-11T09:14:03;29.98;;;12.13;;
28760;SDS011;15917;50.014;8.352;2022-11-11T09:16:47;32.35;;;12.80;;
28760;SDS011;15917;50.014;8.352;2022-11-11T09:19:32;39.95;;;13.18;;
28760;SDS011;15917;50.014;8.352;2022-11-11T09:22:16;29.42;;;12.35;;
28760;SDS011;15917;50.014;8.352;2022-11-11T09:25:00;37.83;;;13.68;;
28760;SDS011;15917;50.014;8.352;2022-11-11T09:27:52;37.72;;;12.35;;
28760;SDS011;15917;50.014;8.352;2022-11-11T09:30:38;32.67;;;12.57;;
28760;SDS011;15917;50.014;8.352;2022-11-11T09:33:22;46.25;;;13.80;;
28760;SDS011;15917;50.014;8.352;2022-11-11T09:36:06;32.75;;;13.68;;
28760;SDS011;15917;50.014;8.352;2022-11-11T09:38:50;34.78;;;13.70;;
28760;SDS011;15917;50.014;8.352;2022-11-11T09:50:27;22.40;;;8.82;;
28760;SDS011;15917;50.014;8.352;2022-11-11T09:53:21;41.40;;;15.90;;
28760;SDS011;15917;50.014;8.352;2022-11-11T09:56:16;37.67;;;14.88;;
28760;SDS011;15917;50.014;8.352;2022-11-11T09:59:08;48.58;;;13.98;;
28760;SDS011;15917;50.014;8.352;2022-11-11T10:02:00;32.95;;;13.98;;
28760;SDS011;15917;50.014;8.352;2022-11-11T10:04:49;38.58;;;13.82;;
28760;SDS011;15917;50.014;8.352;2022-11-11T10:07:40;42.58;;;14.38;;
28760;SDS011;15917;50.014;8.352;2022-11-11T10:10:38;45.90;;;14.90;;
28760;SDS011;15917;50.014;8.352;2022-11-11T10:13:34;40.60;;;16.33;;
28760;SDS011;15917;50.014;8.352;2022-11-11T10:19:33;48.60;;;15.20;;
28760;SDS011;15917;50.014;8.352;2022-11-11T10:22:32;42.08;;;15.50;;
28760;SDS011;15917;50.014;8.352;2022-11-11T10:25:23;33.80;;;14.73;;
28760;SDS011;15917;50.014;8.352;2022-11-11T10:28:08;40.97;;;15.77;;
28760;SDS011;15917;50.014;8.352;2022-11-11T10:30:59;37.10;;;15.40;;
28760;SDS011;15917;50.014;8.352;2022-11-11T10:33:53;39.05;;;15.18;;
28760;SDS011;15917;50.014;8.352;2022-11-11T10:36:47;37.05;;;15.00;;
28760;SDS011;15917;50.014;8.352;2022-11-11T10:45:40;35.75;;;14.60;;
28760;SDS011;15917;50.014;8.352;2022-11-11T10:51:37;42.38;;;16.08;;
28760;SDS011;15917;50.014;8.352;2022-11-11T10:54:34;35.08;;;14.82;;
28760;SDS011;15917;50.014;8.352;2022-11-11T10:57:52;39.22;;;15.35;;
28760;SDS011;15917;50.014;8.352;2022-11-11T11:00:43;37.85;;;15.18;;
28760;SDS011;15917;50.014;8.352;2022-11-11T11:06:19;34.47;;;15.30;;
28760;SDS011;15917;50.014;8.352;2022-11-11T11:09:09;29.77;;;14.45;;
28760;SDS011;15917;50.014;8.352;2022-11-11T11:11:57;32.08;;;13.95;;
28760;SDS011;15917;50.014;8.352;2022-11-11T11:14:47;34.28;;;14.05;;
28760;SDS011;15917;50.014;8.352;2022-11-11T11:17:50;31.95;;;14.27;;
28760;SDS011;15917;50.014;8.352;2022-11-11T11:20:36;26.30;;;14.98;;
28760;SDS011;15917;50.014;8.352;2022-11-11T11:23:34;36.60;;;19.55;;
28760;SDS011;15917;50.014;8.352;2022-11-11T11:26:23;30.38;;;15.05;;
28760;SDS011;15917;50.014;8.352;2022-11-11T11:29:07;38.22;;;18.55;;
28760;SDS011;15917;50.014;8.352;2022-11-11T11:31:51;38.22;;;15.27;;
28760;SDS011;15917;50.014;8.352;2022-11-11T11:34:52;36.90;;;15.40;;
28760;SDS011;15917;50.014;8.352;2022-11-11T11:37:58;34.08;;;15.93;;
28760;SDS011;15917;50.014;8.352;2022-11-11T11:46:18;37.00;;;17.13;;
28760;SDS011;15917;50.014;8.352;2022-11-11T11:49:17;41.80;;;16.63;;
28760;SDS011;15917;50.014;8.352;2022-11-11T11:55:31;41.85;;;16.27;;
28760;SDS011;15917;50.014;8.352;2022-11-11T12:01:41;201.13;;;62.15;;
28760;SDS011;15917;50.014;8.352;2022-11-11T12:04:39;209.20;;;69.20;;
28760;SDS011;15917;50.014;8.352;2022-11-11T12:16:41;50.83;;;23.02;;
28760;SDS011;15917;50.014;8.352;2022-11-11T12:19:40;44.83;;;21.25;;
28760;SDS011;15917;50.014;8.352;2022-11-11T12:22:32;42.78;;;20.38;;
28760;SDS011;15917;50.014;8.352;2022-11-11T12:25:19;49.58;;;22.65;;
28760;SDS011;15917;50.014;8.352;2022-11-11T12:34:30;67.30;;;29.02;;
28760;SDS011;15917;50.014;8.352;2022-11-11T12:37:44;58.97;;;24.70;;
28760;SDS011;15917;50.014;8.352;2022-11-11T12:44:03;50.50;;;22.67;;
28760;SDS011;15917;50.014;8.352;2022-11-11T12:47:10;47.58;;;20.85;;
28760;SDS011;15917;50.014;8.352;2022-11-11T12:50:16;43.03;;;18.63;;
28760;SDS011;15917;50.014;8.352;2022-11-11T12:53:36;47.13;;;22.25;;
28760;SDS011;15917;50.014;8.352;2022-11-11T13:09:25;60.42;;;28.88;;
28760;SDS011;15917;50.014;8.352;2022-11-11T13:12:23;53.33;;;23.92;;
28760;SDS011;15917;50.014;8.352;2022-11-11T13:15:22;51.92;;;23.85;;
28760;SDS011;15917;50.014;8.352;2022-11-11T13:18:11;47.70;;;21.65;;
28760;SDS011;15917;50.014;8.352;2022-11-11T13:21:05;52.53;;;22.02;;
28760;SDS011;15917;50.014;8.352;2022-11-11T13:23:55;50.05;;;21.65;;
28760;SDS011;15917;50.014;8.352;2022-11-11T13:26:42;41.58;;;20.60;;
28760;SDS011;15917;50.014;8.352;2022-11-11T13:32:31;41.88;;;19.50;;
28760;SDS011;15917;50.014;8.352;2022-11-11T13:35:27;51.00;;;20.80;;
28760;SDS011;15917;50.014;8.352;2022-11-11T13:41:30;49.30;;;21.40;;
28760;SDS011;15917;50.014;8.352;2022-11-11T13:44:21;48.00;;;22.13;;
28760;SDS011;15917;50.014;8.352;2022-11-11T13:47:17;56.78;;;23.25;;
28760;SDS011;15917;50.014;8.352;2022-11-11T13:50:11;49.90;;;22.55;;
28760;SDS011;15917;50.014;8.352;2022-11-11T13:53:13;51.90;;;21.60;;
28760;SDS011;15917;50.014;8.352;2022-11-11T13:56:07;56.90;;;23.25;;
28760;SDS011;15917;50.014;8.352;2022-11-11T13:58:54;60.60;;;24.85;;
28760;SDS011;15917;50.014;8.352;2022-11-11T14:01:40;72.35;;;29.35;;
28760;SDS011;15917;50.014;8.352;2022-11-11T14:04:24;58.90;;;26.48;;
28760;SDS011;15917;50.014;8.352;2022-11-11T14:07:08;60.33;;;25.33;;
28760;SDS011;15917;50.014;8.352;2022-11-11T14:12:39;71.32;;;29.17;;
28760;SDS011;15917;50.014;8.352;2022-11-11T14:21:09;61.28;;;26.33;;
28760;SDS011;15917;50.014;8.352;2022-11-11T14:23:54;66.70;;;27.33;;
28760;SDS011;15917;50.014;8.352;2022-11-11T14:26:38;62.50;;;25.55;;
28760;SDS011;15917;50.014;8.352;2022-11-11T14:29:23;58.80;;;25.95;;
28760;SDS011;15917;50.014;8.352;2022-11-11T14:32:24;58.42;;;27.90;;
28760;SDS011;15917;50.014;8.352;2022-11-11T14:49:59;62.00;;;26.08;;
28760;SDS011;15917;50.014;8.352;2022-11-11T14:52:44;73.68;;;26.70;;
28760;SDS011;15917;50.014;8.352;2022-11-11T14:55:33;62.78;;;26.58;;
28760;SDS011;15917;50.014;8.352;2022-11-11T14:58:23;69.38;;;27.08;;
28760;SDS011;15917;50.014;8.352;2022-11-11T15:01:16;59.78;;;25.27;;
28760;SDS011;15917;50.014;8.352;2022-11-11T15:04:02;59.22;;;25.33;;
28760;SDS011;15917;50.014;8.352;2022-11-11T15:06:50;66.03;;;24.00;;
28760;SDS011;15917;50.014;8.352;2022-11-11T15:09:48;53.50;;;23.45;;
28760;SDS011;15917;50.014;8.352;2022-11-11T15:15:48;61.67;;;25.02;;
28760;SDS011;15917;50.014;8.352;2022-11-11T15:21:55;63.22;;;23.80;;
28760;SDS011;15917;50.014;8.352;2022-11-11T15:28:13;54.95;;;24.05;;
28760;SDS011;15917;50.014;8.352;2022-11-11T15:37:11;55.53;;;22.73;;
28760;SDS011;15917;50.014;8.352;2022-11-11T15:39:58;54.00;;;24.42;;
28760;SDS011;15917;50.014;8.352;2022-11-11T15:42:42;67.60;;;26.52;;
28760;SDS011;15917;50.014;8.352;2022-11-11T15:45:33;62.35;;;25.15;;
28760;SDS011;15917;50.014;8.352;2022-11-11T15:48:19;92.30;;;28.27;;
28760;SDS011;15917;50.014;8.352;2022-11-11T15:51:16;91.45;;;28.17;;
28760;SDS011;15917;50.014;8.352;2022-11-11T15:54:15;76.63;;;27.25;;
28760;SDS011;15917;50.014;8.352;2022-11-11T15:57:20;69.80;;;28.20;;
28760;SDS011;15917;50.014;8.352;2022-11-11T16:03:13;69.55;;;29.73;;
28760;SDS011;15917;50.014;8.352;2022-11-11T16:06:00;87.70;;;26.27;;
28760;SDS011;15917;50.014;8.352;2022-11-11T16:08:50;59.35;;;26.65;;
28760;SDS011;15917;50.014;8.352;2022-11-11T16:11:37;74.15;;;25.83;;
28760;SDS011;15917;50.014;8.352;2022-11-11T16:17:09;96.68;;;27.48;;
28760;SDS011;15917;50.014;8.352;2022-11-11T16:19:56;57.22;;;26.17;;
28760;SDS011;15917;50.014;8.352;2022-11-11T16:22:41;103.75;;;26.90;;
28760;SDS011;15917;50.014;8.352;2022-11-11T16:25:28;61.85;;;24.33;;
28760;SDS011;15917;50.014;8.352;2022-11-11T16:28:13;65.53;;;26.30;;
28760;SDS011;15917;50.014;8.352;2022-11-11T16:30:58;144.80;;;25.00;;
28760;SDS011;15917;50.014;8.352;2022-11-11T16:33:42;135.80;;;24.55;;
28760;SDS011;15917;50.014;8.352;2022-11-11T16:36:26;96.53;;;24.05;;
28760;SDS011;15917;50.014;8.352;2022-11-11T16:39:20;89.95;;;25.88;;
28760;SDS011;15917;50.014;8.352;2022-11-11T16:42:25;101.03;;;25.52;;
28760;SDS011;15917;50.014;8.352;2022-11-11T16:45:17;228.95;;;27.88;;
28760;SDS011;15917;50.014;8.352;2022-11-11T16:48:03;144.10;;;27.60;;
28760;SDS011;15917;50.014;8.352;2022-11-11T16:50:51;149.13;;;25.42;;
28760;SDS011;15917;50.014;8.352;2022-11-11T16:53:45;293.00;;;25.52;;
28760;SDS011;15917;50.014;8.352;2022-11-11T16:56:40;89.90;;;24.05;;
28760;SDS011;15917;50.014;8.352;2022-11-11T16:59:44;144.38;;;23.38;;
28760;SDS011;15917;50.014;8.352;2022-11-11T17:02:33;180.05;;;22.17;;
28760;SDS011;15917;50.014;8.352;2022-11-11T17:05:17;195.30;;;23.27;;
28760;SDS011;15917;50.014;8.352;2022-11-11T17:08:09;134.77;;;20.33;;
28760;SDS011;15917;50.014;8.352;2022-11-11T17:14:22;86.43;;;21.60;;
28760;SDS011;15917;50.014;8.352;2022-11-11T17:17:07;85.50;;;19.80;;
28760;SDS011;15917;50.014;8.352;2022-11-11T17:19:53;128.40;;;22.40;;
28760;SDS011;15917;50.014;8.352;2022-11-11T17:22:58;144.00;;;22.30;;
28760;SDS011;15917;50.014;8.352;2022-11-11T17:25:42;75.03;;;19.48;;
28760;SDS011;15917;50.014;8.352;2022-11-11T17:28:31;65.68;;;19.17;;
28760;SDS011;15917;50.014;8.352;2022-11-11T17:31:17;113.55;;;19.23;;
28760;SDS011;15917;50.014;8.352;2022-11-11T17:34:08;126.85;;;19.02;;
28760;SDS011;15917;50.014;8.352;2022-11-11T17:36:53;59.15;;;19.40;;
28760;SDS011;15917;50.014;8.352;2022-11-11T17:39:37;87.07;;;18.95;;
28760;SDS011;15917;50.014;8.352;2022-11-11T17:42:29;92.68;;;18.02;;
28760;SDS011;15917;50.014;8.352;2022-11-11T17:45:14;62.70;;;18.23;;
28760;SDS011;15917;50.014;8.352;2022-11-11T17:47:58;36.88;;;17.52;;
28760;SDS011;15917;50.014;8.352;2022-11-11T17:50:42;45.10;;;17.73;;
28760;SDS011;15917;50.014;8.352;2022-11-11T17:53:26;82.55;;;17.52;;
28760;SDS011;15917;50.014;8.352;2022-11-11T17:56:10;38.97;;;16.10;;
28760;SDS011;15917;50.014;8.352;2022-11-11T17:58:54;81.40;;;16.50;;
28760;SDS011;15917;50.014;8.352;2022-11-11T18:01:38;76.75;;;16.55;;
28760;SDS011;15917;50.014;8.352;2022-11-11T18:04:22;47.30;;;15.13;;
28760;SDS011;15917;50.014;8.352;2022-11-11T18:07:07;51.17;;;17.40;;
28760;SDS011;15917;50.014;8.352;2022-11-11T18:09:51;54.45;;;16.92;;
28760;SDS011;15917;50.014;8.352;2022-11-11T18:12:35;44.42;;;17.42;;
28760;SDS011;15917;50.014;8.352;2022-11-11T18:15:19;56.15;;;18.55;;
28760;SDS011;15917;50.014;8.352;2022-11-11T18:18:05;47.03;;;19.00;;
28760;SDS011;15917;50.014;8.352;2022-11-11T18:20:49;56.50;;;20.95;;
28760;SDS011;15917;50.014;8.352;2022-11-11T18:23:34;135.57;;;23.27;;
28760;SDS011;15917;50.014;8.352;2022-11-11T18:26:20;90.85;;;22.75;;
28760;SDS011;15917;50.014;8.352;2022-11-11T18:29:05;69.75;;;19.20;;